createdAt,value
2023-01-13T00:01:29.174Z,99572.72
2023-01-13T00:03:58.406Z,99568.06
2023-01-13T00:06:27.259Z,99562.19
2023-01-13T00:08:56.669Z,99555.41
2023-01-13T00:11:26.485Z,99556.41
2023-01-13T00:13:54.749Z,99552.34
2023-01-13T00:16:22.988Z,99549.09
2023-01-13T00:18:52.240Z,99544.19
2023-01-13T00:21:23.274Z,99541.66
2023-01-13T00:23:54.072Z,99542.81
2023-01-13T00:26:25.537Z,99543.06
2023-01-13T00:28:57.774Z,99544.47
2023-01-13T00:31:26.099Z,99545.03
2023-01-13T00:33:57.005Z,99546.03
2023-01-13T00:36:25.072Z,99536.47
2023-01-13T00:38:53.164Z,99537.03
2023-01-13T00:41:24.892Z,99540.28
2023-01-13T00:43:52.089Z,99541.06
2023-01-13T00:46:23.088Z,99538.44
2023-01-13T00:48:51.770Z,99540.00
2023-01-13T00:51:21.853Z,99545.88
2023-01-13T00:53:52.609Z,99536.31
2023-01-13T00:56:38.647Z,99534.81
2023-01-13T00:59:11.890Z,99525.53
2023-01-13T01:01:41.515Z,99526.78
2023-01-13T01:04:09.767Z,99527.06
2023-01-13T01:06:38.104Z,99519.47
2023-01-13T01:09:06.942Z,99522.44
2023-01-13T01:11:35.396Z,99520.16
2023-01-13T01:14:04.821Z,99517.22
2023-01-13T01:16:35.520Z,99520.03
2023-01-13T01:19:05.196Z,99524.81
2023-01-13T01:21:34.457Z,99525.66
2023-01-13T01:24:04.974Z,99520.31
2023-01-13T01:26:33.574Z,99521.16
2023-01-13T01:29:02.603Z,99518.34
2023-01-13T01:31:33.522Z,99517.94
2023-01-13T01:34:03.830Z,99517.09
2023-01-13T01:36:32.013Z,99519.34
2023-01-13T01:39:01.387Z,99519.03
2023-01-13T01:41:33.137Z,99508.50
2023-01-13T01:44:03.117Z,99498.97
2023-01-13T01:46:33.906Z,99492.25
2023-01-13T01:49:13.797Z,99501.09
2023-01-13T01:51:46.795Z,99497.13
2023-01-13T01:54:20.720Z,99491.34
2023-01-13T01:56:50.091Z,99486.91
2023-01-13T01:59:19.345Z,99490.53
2023-01-13T02:01:49.626Z,99489.13
2023-01-13T02:04:25.219Z,99489.09
2023-01-13T02:06:54.897Z,99488.13
2023-01-13T02:09:23.769Z,99473.09
2023-01-13T02:12:09.453Z,99476.28
2023-01-13T02:14:39.813Z,99465.81
2023-01-13T02:17:26.170Z,99469.16
2023-01-13T02:20:15.948Z,99469.03
2023-01-13T02:23:07.310Z,99475.91
2023-01-13T02:25:48.965Z,99486.12
2023-01-13T02:29:01.133Z,99484.44
2023-01-13T02:31:45.288Z,99500.06
2023-01-13T02:34:20.157Z,99498.06
2023-01-13T02:36:53.498Z,99497.63
2023-01-13T02:39:28.479Z,99505.87
2023-01-13T02:42:23.380Z,99500.84
2023-01-13T02:44:57.432Z,99497.28
2023-01-13T02:47:29.706Z,99503.50
2023-01-13T02:50:01.489Z,99500.50
2023-01-13T02:52:35.526Z,99491.81
2023-01-13T02:55:07.705Z,99492.91
2023-01-13T02:57:38.700Z,99487.31
2023-01-13T03:00:09.331Z,99481.97
2023-01-13T03:02:39.621Z,99479.41
2023-01-13T03:05:08.264Z,99472.25
2023-01-13T03:07:58.966Z,99472.81
2023-01-13T03:10:48.910Z,99467.59
2023-01-13T03:13:27.227Z,99467.03
2023-01-13T03:16:03.570Z,99460.37
2023-01-13T03:18:41.782Z,99455.81
2023-01-13T03:21:16.723Z,99446.66
2023-01-13T03:23:51.751Z,99434.72
2023-01-13T03:26:27.655Z,99441.47
2023-01-13T03:29:01.421Z,99437.13
2023-01-13T03:31:32.888Z,99428.75
2023-01-13T03:34:06.395Z,99423.97
2023-01-13T03:36:39.380Z,99423.13
2023-01-13T03:39:11.873Z,99416.00
2023-01-13T03:41:45.581Z,99409.25
2023-01-13T03:44:22.981Z,99412.06
2023-01-13T03:47:00.360Z,99409.00
2023-01-13T03:49:37.356Z,99411.22
2023-01-13T03:52:10.520Z,99406.72
2023-01-13T03:54:48.802Z,99405.66
2023-01-13T03:57:20.767Z,99400.47
2023-01-13T03:59:55.676Z,99413.25
2023-01-13T04:02:36.778Z,99411.00
2023-01-13T04:05:09.845Z,99416.09
2023-01-13T04:07:53.945Z,99403.19
2023-01-13T04:10:26.443Z,99423.66
2023-01-13T04:13:05.235Z,99421.13
2023-01-13T04:15:37.501Z,99424.28
2023-01-13T04:18:12.537Z,99433.41
2023-01-13T04:20:44.378Z,99444.91
2023-01-13T04:23:13.598Z,99446.28
2023-01-13T04:25:45.526Z,99438.44
2023-01-13T04:28:21.067Z,99439.84
2023-01-13T04:30:58.866Z,99441.09
2023-01-13T04:33:27.336Z,99436.87
2023-01-13T04:35:59.358Z,99431.81
2023-01-13T04:38:35.634Z,99435.75
2023-01-13T04:41:10.344Z,99431.81
2023-01-13T04:43:41.601Z,99433.53
2023-01-13T04:46:12.939Z,99437.59
2023-01-13T04:48:44.854Z,99454.47
2023-01-13T04:51:16.370Z,99453.47
2023-01-13T04:53:47.331Z,99454.47
2023-01-13T04:56:19.294Z,99451.22
2023-01-13T04:58:47.271Z,99448.09
2023-01-13T05:01:15.882Z,99447.28
2023-01-13T05:03:43.988Z,99447.25
2023-01-13T05:06:11.965Z,99448.66
2023-01-13T05:08:41.504Z,99447.41
2023-01-13T05:11:23.435Z,99449.38
2023-01-13T05:14:09.244Z,99445.84
2023-01-13T05:16:55.375Z,99457.09
2023-01-13T05:19:23.902Z,99456.06
2023-01-13T05:22:09.560Z,99448.78
2023-01-13T05:24:56.866Z,99448.78
2023-01-13T05:27:24.927Z,99444.37
2023-01-13T05:29:53.822Z,99450.84
2023-01-13T05:32:22.306Z,99436.34
2023-01-13T05:34:50.733Z,99436.34
2023-01-13T05:37:18.981Z,99433.81
2023-01-13T05:40:06.398Z,99432.13
2023-01-13T05:42:52.226Z,99438.47
2023-01-13T05:45:20.221Z,99432.56
2023-01-13T05:47:48.522Z,99438.59
2023-01-13T05:50:17.815Z,99431.16
2023-01-13T05:52:45.810Z,99436.53
2023-01-13T05:55:15.725Z,99428.66
2023-01-13T05:57:43.690Z,99429.37
2023-01-13T06:00:12.805Z,99434.53
2023-01-13T06:02:41.227Z,99432.69
2023-01-13T06:05:09.982Z,99451.38
2023-01-13T06:07:38.170Z,99472.75
2023-01-13T06:10:07.326Z,99521.03
2023-01-13T06:12:37.079Z,99528.34
2023-01-13T06:15:05.911Z,99534.81
2023-01-13T06:17:34.240Z,99539.28
2023-01-13T06:20:02.272Z,99542.50
2023-01-13T06:22:32.935Z,99542.72
2023-01-13T06:25:02.264Z,99532.44
2023-01-13T06:27:31.340Z,99537.94
2023-01-13T06:30:01.190Z,99538.47
2023-01-13T06:32:34.614Z,99533.00
2023-01-13T06:35:08.620Z,99523.03
2023-01-13T06:37:37.812Z,99521.91
2023-01-13T06:40:08.662Z,99522.47
2023-01-13T06:42:56.535Z,99517.84
2023-01-13T06:45:27.737Z,99510.53
2023-01-13T06:47:56.990Z,99502.53
2023-01-13T06:50:25.293Z,99504.50
2023-01-13T06:52:53.299Z,99503.78
2023-01-13T06:55:21.631Z,99501.97
2023-01-13T06:57:54.273Z,99498.31
2023-01-13T07:00:24.169Z,99487.06
2023-01-13T07:02:53.859Z,99499.38
2023-01-13T07:05:22.465Z,99503.97
2023-01-13T07:07:50.758Z,99504.44
2023-01-13T07:10:22.455Z,99503.88
2023-01-13T07:13:08.432Z,99495.56
2023-01-13T07:15:36.902Z,99502.19
2023-01-13T07:18:06.563Z,99527.22
2023-01-13T07:20:34.561Z,99549.13
2023-01-13T07:23:02.646Z,99559.97
2023-01-13T07:25:32.450Z,99532.16
2023-01-13T07:28:00.373Z,99543.66
2023-01-13T07:30:28.463Z,99547.31
2023-01-13T07:32:57.089Z,99527.94
2023-01-13T07:35:26.496Z,99547.81
2023-01-13T07:37:54.569Z,99554.81
2023-01-13T07:40:22.976Z,99564.31
2023-01-13T07:43:08.581Z,99569.50
2023-01-13T07:45:36.961Z,99564.47
2023-01-13T07:48:05.334Z,99576.94
2023-01-13T07:50:34.721Z,99562.62
2023-01-13T07:53:03.325Z,99565.69
2023-01-13T07:55:31.520Z,99557.16
2023-01-13T07:57:59.422Z,99551.28
2023-01-13T08:00:27.964Z,99532.62
2023-01-13T08:02:56.245Z,99538.94
2023-01-13T08:05:24.303Z,99524.16
2023-01-13T08:07:53.616Z,99507.31
2023-01-13T08:10:21.908Z,99496.56
2023-01-13T08:13:07.478Z,99497.66
2023-01-13T08:15:35.771Z,99498.75
2023-01-13T08:18:03.827Z,99494.56
2023-01-13T08:20:31.817Z,99519.97
2023-01-13T08:23:02.186Z,99520.81
2023-01-13T08:25:31.221Z,99497.22
2023-01-13T08:28:00.337Z,99497.25
2023-01-13T08:30:29.457Z,99512.13
2023-01-13T08:32:57.801Z,99554.53
2023-01-13T08:35:26.156Z,99569.97
2023-01-13T08:37:54.168Z,99596.56
2023-01-13T08:40:23.577Z,99590.31
2023-01-13T08:42:52.960Z,99590.25
2023-01-13T08:45:21.256Z,99592.22
2023-01-13T08:47:49.240Z,99591.94
2023-01-13T08:50:17.845Z,99594.72
2023-01-13T08:52:45.915Z,99582.94
2023-01-13T08:55:14.088Z,99591.78
2023-01-13T08:57:43.824Z,99579.94
2023-01-13T09:00:13.045Z,99552.34
2023-01-13T09:02:41.412Z,99550.72
2023-01-13T09:05:10.885Z,99560.09
2023-01-13T09:07:40.165Z,99554.38
2023-01-13T09:10:09.701Z,99575.41
2023-01-13T09:12:55.408Z,99592.81
2023-01-13T09:15:24.751Z,99606.09
2023-01-13T09:17:53.123Z,99609.94
2023-01-13T09:20:21.380Z,99615.53
2023-01-13T09:22:49.345Z,99616.81
2023-01-13T09:25:17.841Z,99607.47
2023-01-13T09:27:45.792Z,99595.13
2023-01-13T09:30:14.655Z,99576.03
2023-01-13T09:32:44.290Z,99576.81
2023-01-13T09:35:11.318Z,99590.31
2023-01-13T09:37:41.581Z,99597.59
2023-01-13T09:40:16.667Z,99606.84
2023-01-13T09:43:07.745Z,99610.91
2023-01-13T09:45:42.450Z,99598.78
2023-01-13T09:48:16.220Z,99605.78
2023-01-13T09:50:58.840Z,99612.09
2023-01-13T09:53:30.487Z,99612.66
2023-01-13T09:55:59.043Z,99612.09
2023-01-13T09:58:28.029Z,99610.56
2023-01-13T10:01:08.439Z,99603.28
2023-01-13T10:03:38.169Z,99594.69
2023-01-13T10:06:14.554Z,99586.38
2023-01-13T10:08:44.379Z,99587.72
2023-01-13T10:11:33.402Z,99593.91
2023-01-13T10:14:04.972Z,99603.22
2023-01-13T10:16:42.376Z,99594.34
2023-01-13T10:19:19.553Z,99598.34
2023-01-13T10:22:25.381Z,99609.09
2023-01-13T10:25:22.763Z,99604.41
2023-01-13T10:27:52.480Z,99599.00
2023-01-13T10:30:24.234Z,99593.69
2023-01-13T10:32:57.390Z,99596.44
2023-01-13T10:35:53.718Z,99594.84
2023-01-13T10:38:25.099Z,99593.75
2023-01-13T10:40:55.264Z,99591.66
2023-01-13T10:43:24.025Z,99594.88
2023-01-13T10:46:05.094Z,99594.03
2023-01-13T10:48:39.722Z,99600.78
2023-01-13T10:51:23.639Z,99597.44
2023-01-13T10:53:56.161Z,99599.94
2023-01-13T10:56:26.849Z,99587.72
2023-01-13T10:59:14.253Z,99604.28
2023-01-13T11:01:43.914Z,99597.56
2023-01-13T11:04:30.996Z,99588.19
2023-01-13T11:07:01.425Z,99596.03
2023-01-13T11:09:31.651Z,99596.72
2023-01-13T11:12:02.939Z,99600.69
2023-01-13T11:14:40.498Z,99602.38
2023-01-13T11:17:24.461Z,99592.69
2023-01-13T11:19:59.063Z,99605.75
2023-01-13T11:22:33.838Z,99611.63
2023-01-13T11:25:05.364Z,99620.22
2023-01-13T11:27:41.608Z,99618.63
2023-01-13T11:30:24.040Z,99624.56
2023-01-13T11:33:04.587Z,99636.25
2023-01-13T11:35:37.338Z,99623.28
2023-01-13T11:38:16.702Z,99627.22
2023-01-13T11:40:47.823Z,99629.63
2023-01-13T11:43:23.006Z,99632.00
2023-01-13T11:45:54.520Z,99639.19
2023-01-13T11:48:27.006Z,99623.72
2023-01-13T11:51:04.502Z,99625.94
2023-01-13T11:53:50.486Z,99618.63
2023-01-13T11:56:34.813Z,99632.56
2023-01-13T11:59:29.430Z,99635.25
2023-01-13T12:02:15.276Z,99629.91
2023-01-13T12:04:55.717Z,99632.16
2023-01-13T12:07:37.549Z,99637.31
2023-01-13T12:10:14.103Z,99630.59
2023-01-13T12:12:52.005Z,99640.44
2023-01-13T12:15:44.771Z,99630.63
2023-01-13T12:18:25.616Z,99643.13
2023-01-13T12:21:08.118Z,99637.03
2023-01-13T12:23:43.076Z,99640.44
2023-01-13T12:26:15.339Z,99642.13
2023-01-13T12:28:49.504Z,99631.00
2023-01-13T12:31:19.826Z,99626.25
2023-01-13T12:34:14.483Z,99614.97
2023-01-13T12:36:55.108Z,99612.75
2023-01-13T12:39:31.036Z,99615.44
2023-01-13T12:42:27.285Z,99603.06
2023-01-13T12:45:20.971Z,99606.44
2023-01-13T12:47:49.836Z,99609.09
2023-01-13T12:50:41.753Z,99625.75
2023-01-13T12:53:36.691Z,99618.59
2023-01-13T12:56:45.056Z,99619.47
2023-01-13T12:59:49.169Z,99631.88
2023-01-13T13:02:27.145Z,99634.44
2023-01-13T13:04:57.613Z,99631.03
2023-01-13T13:07:37.272Z,99643.09
2023-01-13T13:10:17.165Z,99642.63
2023-01-13T13:13:17.643Z,99641.25
2023-01-13T13:15:48.703Z,99643.59
2023-01-13T13:18:28.531Z,99646.16
2023-01-13T13:21:04.642Z,99633.06
2023-01-13T13:23:43.622Z,99633.50
2023-01-13T13:26:20.088Z,99624.94
2023-01-13T13:28:58.140Z,99620.34
2023-01-13T13:31:38.723Z,99618.84
2023-01-13T13:34:22.216Z,99621.28
2023-01-13T13:37:10.991Z,99615.25
2023-01-13T13:40:02.074Z,99615.81
2023-01-13T13:42:56.342Z,99616.81
2023-01-13T13:45:44.806Z,99624.22
2023-01-13T13:48:23.134Z,99629.00
2023-01-13T13:50:56.538Z,99633.06
2023-01-13T13:53:28.457Z,99628.84
2023-01-13T13:56:00.977Z,99639.72
2023-01-13T13:58:37.054Z,99642.22
2023-01-13T14:01:06.417Z,99641.94
2023-01-13T14:03:40.008Z,99640.00
2023-01-13T14:06:08.993Z,99648.78
2023-01-13T14:08:39.634Z,99661.75
2023-01-13T14:11:27.699Z,99667.38
2023-01-13T14:14:03.789Z,99665.97
2023-01-13T14:16:32.692Z,99668.34
2023-01-13T14:19:02.303Z,99679.03
2023-01-13T14:21:31.217Z,99672.03
2023-01-13T14:24:01.809Z,99674.28
2023-01-13T14:26:32.178Z,99681.91
2023-01-13T14:29:02.571Z,99681.22
2023-01-13T14:31:32.292Z,99678.81
2023-01-13T14:34:31.441Z,99685.00
2023-01-13T14:36:54.323Z,99689.22
2023-01-13T14:39:33.584Z,99681.66
2023-01-13T14:42:01.868Z,99691.16
2023-01-13T14:44:32.824Z,99699.75
2023-01-13T14:47:03.858Z,99689.94
2023-01-13T14:49:38.476Z,99697.50
2023-01-13T14:52:13.321Z,99697.81
2023-01-13T14:54:50.086Z,99696.50
2023-01-13T14:57:27.499Z,99695.19
2023-01-13T15:00:03.946Z,99695.56
2023-01-13T15:02:39.587Z,99689.09
2023-01-13T15:05:36.141Z,99686.09
2023-01-13T15:08:30.653Z,99698.53
2023-01-13T15:11:00.795Z,99698.47
2023-01-13T15:13:35.650Z,99696.56
2023-01-13T15:16:07.716Z,99699.00
2023-01-13T15:18:39.992Z,99699.50
2023-01-13T15:21:10.105Z,99691.59
2023-01-13T15:23:39.939Z,99697.19
2023-01-13T15:26:19.035Z,99702.44
2023-01-13T15:28:47.932Z,99700.75
2023-01-13T15:31:16.294Z,99706.84
2023-01-13T15:33:44.318Z,99722.00
2023-01-13T15:36:26.851Z,99722.94
2023-01-13T15:38:55.820Z,99724.53
2023-01-13T15:41:38.286Z,99726.59
2023-01-13T15:44:24.111Z,99729.13
2023-01-13T15:46:53.186Z,99719.66
2023-01-13T15:49:27.708Z,99723.53
2023-01-13T15:51:57.101Z,99723.91
2023-01-13T15:54:25.486Z,99727.78
2023-01-13T15:56:54.505Z,99743.13
2023-01-13T15:59:25.243Z,99739.25
2023-01-13T16:01:53.425Z,99745.78
2023-01-13T16:04:21.805Z,99744.09
2023-01-13T16:06:49.979Z,99746.50
2023-01-13T16:09:19.340Z,99749.44
2023-01-13T16:11:47.577Z,99748.25
2023-01-13T16:14:15.564Z,99748.91
2023-01-13T16:16:43.720Z,99756.34
2023-01-13T16:19:13.334Z,99770.47
2023-01-13T16:21:41.398Z,99762.72
2023-01-13T16:24:09.480Z,99763.91
2023-01-13T16:26:39.164Z,99760.75
2023-01-13T16:29:08.024Z,99766.00
2023-01-13T16:31:36.553Z,99762.44
2023-01-13T16:34:06.765Z,99768.25
2023-01-13T16:36:37.075Z,99776.50
2023-01-13T16:39:06.390Z,99775.53
2023-01-13T16:41:34.874Z,99780.09
2023-01-13T16:44:06.144Z,99778.19
2023-01-13T16:46:35.076Z,99776.16
2023-01-13T16:49:05.802Z,99786.09
2023-01-13T16:51:34.280Z,99789.97
2023-01-13T16:54:02.579Z,99794.06
2023-01-13T16:56:32.104Z,99798.78
2023-01-13T16:59:07.589Z,99807.50
2023-01-13T17:01:37.564Z,99815.25
2023-01-13T17:04:06.613Z,99822.16
2023-01-13T17:06:38.181Z,99829.31
2023-01-13T17:09:09.210Z,99826.16
2023-01-13T17:11:37.201Z,99830.38
2023-01-13T17:14:18.955Z,99845.88
2023-01-13T17:16:48.198Z,99849.50
2023-01-13T17:19:16.495Z,99860.16
2023-01-13T17:21:44.464Z,99862.09
2023-01-13T17:24:12.792Z,99863.31
2023-01-13T17:26:44.053Z,99863.78
2023-01-13T17:29:16.994Z,99871.91
2023-01-13T17:31:45.594Z,99872.88
2023-01-13T17:34:14.334Z,99883.00
2023-01-13T17:36:43.858Z,99885.28
2023-01-13T17:39:16.936Z,99894.16
2023-01-13T17:41:45.643Z,99897.28
2023-01-13T17:44:16.325Z,99913.97
2023-01-13T17:46:44.871Z,99920.53
2023-01-13T17:49:13.965Z,99910.59
2023-01-13T17:51:42.247Z,99907.44
2023-01-13T17:54:12.308Z,99922.19
2023-01-13T17:56:41.280Z,99912.88
2023-01-13T17:59:10.574Z,99915.16
2023-01-13T18:01:41.154Z,99917.72
2023-01-13T18:04:14.904Z,99922.09
2023-01-13T18:06:43.069Z,99928.25
2023-01-13T18:09:11.314Z,99920.84
2023-01-13T18:11:39.243Z,99927.53
2023-01-13T18:14:08.175Z,99936.44
2023-01-13T18:16:37.072Z,99945.06
2023-01-13T18:19:24.074Z,99936.41
2023-01-13T18:22:09.948Z,99949.84
2023-01-13T18:24:55.801Z,99947.69
2023-01-13T18:27:28.996Z,99956.25
2023-01-13T18:29:59.639Z,99960.41
2023-01-13T18:32:32.805Z,99966.59
2023-01-13T18:35:06.668Z,99966.06
2023-01-13T18:37:38.552Z,99970.44
2023-01-13T18:40:09.319Z,99980.81
2023-01-13T18:42:54.266Z,99972.06
2023-01-13T18:45:25.233Z,99975.91
2023-01-13T18:47:55.038Z,99982.72
2023-01-13T18:50:25.161Z,99986.06
2023-01-13T18:52:54.078Z,99984.50
2023-01-13T18:55:22.853Z,99988.50
2023-01-13T18:57:51.241Z,99990.72
2023-01-13T19:00:21.264Z,100005.66
2023-01-13T19:02:50.760Z,100002.66
2023-01-13T19:05:19.281Z,100007.47
2023-01-13T19:07:51.784Z,100001.97
2023-01-13T19:10:20.037Z,100002.78
2023-01-13T19:12:48.303Z,100010.16
2023-01-13T19:15:16.948Z,100022.66
2023-01-13T19:17:45.607Z,100023.19
2023-01-13T19:20:13.865Z,100028.38
2023-01-13T19:22:41.944Z,100020.25
2023-01-13T19:25:11.548Z,100024.03
2023-01-13T19:27:39.869Z,100020.06
2023-01-13T19:30:09.422Z,100029.12
2023-01-13T19:32:37.714Z,100027.72
2023-01-13T19:35:07.348Z,100033.72
2023-01-13T19:37:36.946Z,100047.69
2023-01-13T19:40:09.242Z,100037.75
2023-01-13T19:42:56.235Z,100041.97
2023-01-13T19:45:27.858Z,100040.09
2023-01-13T19:47:56.322Z,100044.56
2023-01-13T19:50:25.195Z,100044.09
2023-01-13T19:52:53.373Z,100053.91
2023-01-13T19:55:21.364Z,100062.41
2023-01-13T19:57:50.982Z,100064.63
2023-01-13T20:00:20.930Z,100065.16
2023-01-13T20:02:51.826Z,100063.84
2023-01-13T20:05:22.747Z,100058.09
2023-01-13T20:07:51.898Z,100064.25
2023-01-13T20:10:21.657Z,100067.66
2023-01-13T20:12:51.306Z,100069.06
2023-01-13T20:15:19.584Z,100078.28
2023-01-13T20:17:47.558Z,100090.44
2023-01-13T20:20:16.773Z,100089.09
2023-01-13T20:22:45.242Z,100100.59
2023-01-13T20:25:17.023Z,100102.16
2023-01-13T20:27:46.477Z,100096.28
2023-01-13T20:30:16.465Z,100099.91
2023-01-13T20:32:45.030Z,100098.66
2023-01-13T20:35:13.734Z,100099.91
2023-01-13T20:37:43.308Z,100097.97
2023-01-13T20:40:15.265Z,100107.88
2023-01-13T20:42:44.949Z,100111.34
2023-01-13T20:45:20.868Z,100113.56
2023-01-13T20:47:49.327Z,100112.75
2023-01-13T20:50:18.537Z,100110.25
2023-01-13T20:52:47.323Z,100118.66
2023-01-13T20:55:15.707Z,100118.34
2023-01-13T20:57:43.688Z,100110.56
2023-01-13T21:00:12.695Z,100112.63
2023-01-13T21:02:44.014Z,100109.69
2023-01-13T21:05:12.297Z,100121.34
2023-01-13T21:07:40.761Z,100115.81
2023-01-13T21:10:11.359Z,100120.53
2023-01-13T21:12:57.095Z,100120.09
2023-01-13T21:15:27.341Z,100137.66
2023-01-13T21:18:14.243Z,100134.34
2023-01-13T21:20:42.623Z,100144.09
2023-01-13T21:23:11.745Z,100157.28
2023-01-13T21:25:40.224Z,100145.50
2023-01-13T21:28:11.577Z,100154.00
2023-01-13T21:30:40.218Z,100155.91
2023-01-13T21:33:14.181Z,100160.28
2023-01-13T21:35:42.273Z,100166.44
2023-01-13T21:38:12.384Z,100165.06
2023-01-13T21:40:40.599Z,100167.91
2023-01-13T21:43:30.826Z,100171.31
2023-01-13T21:46:16.705Z,100166.66
2023-01-13T21:48:46.129Z,100172.16
2023-01-13T21:51:14.417Z,100177.78
2023-01-13T21:53:42.459Z,100180.44
2023-01-13T21:56:10.443Z,100180.66
2023-01-13T21:58:39.852Z,100195.50
2023-01-13T22:01:09.690Z,100197.09
2023-01-13T22:03:58.769Z,100190.16
2023-01-13T22:06:28.164Z,100197.63
2023-01-13T22:08:59.835Z,100195.78
2023-01-13T22:11:28.190Z,100200.88
2023-01-13T22:14:10.130Z,100205.47
2023-01-13T22:16:41.933Z,100208.19
2023-01-13T22:19:11.157Z,100199.94
2023-01-13T22:21:41.075Z,100201.53
2023-01-13T22:24:09.384Z,100209.69
2023-01-13T22:26:37.815Z,100205.03
2023-01-13T22:29:05.869Z,100198.97
2023-01-13T22:31:33.831Z,100214.16
2023-01-13T22:34:02.163Z,100215.09
2023-01-13T22:36:30.387Z,100208.00
2023-01-13T22:39:00.666Z,100222.12
2023-01-13T22:41:29.170Z,100219.03
2023-01-13T22:43:57.335Z,100211.25
2023-01-13T22:46:25.350Z,100216.66
2023-01-13T22:48:55.740Z,100223.03
2023-01-13T22:51:24.160Z,100224.03
2023-01-13T22:53:52.134Z,100231.91
2023-01-13T22:56:24.096Z,100237.81
2023-01-13T22:58:54.214Z,100237.06
2023-01-13T23:01:23.528Z,100236.28
2023-01-13T23:03:51.859Z,100232.09
2023-01-13T23:06:21.878Z,100240.34
2023-01-13T23:08:50.394Z,100238.44
2023-01-13T23:11:21.418Z,100240.25
2023-01-13T23:13:50.547Z,100247.56
2023-01-13T23:16:21.606Z,100253.53
2023-01-13T23:18:50.386Z,100254.09
2023-01-13T23:21:20.491Z,100257.97
2023-01-13T23:23:49.003Z,100261.69
2023-01-13T23:26:18.030Z,100264.63
2023-01-13T23:28:47.649Z,100260.38
2023-01-13T23:31:17.861Z,100260.63
2023-01-13T23:33:46.625Z,100274.75
2023-01-13T23:36:16.822Z,100271.63
2023-01-13T23:38:46.355Z,100276.66
2023-01-13T23:41:16.553Z,100272.66
2023-01-13T23:43:44.647Z,100267.00
2023-01-13T23:46:16.725Z,100272.84
2023-01-13T23:48:44.936Z,100273.41
2023-01-13T23:51:14.311Z,100275.50
2023-01-13T23:53:45.669Z,100278.34
2023-01-13T23:56:15.460Z,100283.44
2023-01-13T23:58:45.223Z,100277.50
